createdAt,value
2022-11-29T00:01:11.432Z,31.17
2022-11-29T00:03:38.316Z,31.50
2022-11-29T00:06:15.598Z,30.73
2022-11-29T00:08:43.067Z,31.35
2022-11-29T00:11:36.044Z,31.42
2022-11-29T00:14:03.234Z,31.52
2022-11-29T00:16:30.101Z,28.67
2022-11-29T00:18:56.848Z,29.85
2022-11-29T00:21:23.386Z,32.25
2022-11-29T00:23:49.908Z,32.22
2022-11-29T00:26:16.501Z,29.80
2022-11-29T00:28:43.132Z,32.88
2022-11-29T00:31:18.396Z,31.38
2022-11-29T00:33:45.409Z,32.00
2022-11-29T00:36:12.967Z,29.85
2022-11-29T00:38:41.267Z,31.88
2022-11-29T00:41:08.846Z,31.50
2022-11-29T00:43:35.801Z,31.00
2022-11-29T00:46:02.820Z,30.38
2022-11-29T00:48:29.541Z,29.85
2022-11-29T00:50:56.153Z,30.42
2022-11-29T00:53:22.973Z,31.10
2022-11-29T00:55:52.241Z,32.92
2022-11-29T00:58:19.060Z,32.38
2022-11-29T01:00:45.733Z,33.17
2022-11-29T01:03:12.257Z,30.55
2022-11-29T01:05:38.740Z,29.83
2022-11-29T01:08:05.537Z,31.02
2022-11-29T01:10:32.126Z,31.38
2022-11-29T01:12:58.654Z,30.33
2022-11-29T01:15:25.257Z,28.67
2022-11-29T01:17:51.829Z,30.00
2022-11-29T01:20:18.337Z,30.88
2022-11-29T01:22:44.849Z,28.90
2022-11-29T01:25:13.381Z,31.35
2022-11-29T01:27:40.757Z,28.55
2022-11-29T01:30:08.645Z,29.42
2022-11-29T01:32:36.242Z,29.33
2022-11-29T01:35:03.505Z,30.52
2022-11-29T01:37:31.220Z,30.25
2022-11-29T01:39:57.884Z,29.17
2022-11-29T01:42:24.456Z,29.48
2022-11-29T01:45:04.713Z,28.42
2022-11-29T01:47:32.056Z,28.27
2022-11-29T01:50:00.203Z,30.45
2022-11-29T01:52:31.265Z,29.25
2022-11-29T01:55:02.020Z,28.63
2022-11-29T01:57:29.504Z,27.08
2022-11-29T02:00:02.368Z,29.73
2022-11-29T02:02:36.701Z,30.05
2022-11-29T02:05:04.515Z,29.33
2022-11-29T02:07:31.390Z,27.92
2022-11-29T02:09:58.027Z,29.92
2022-11-29T02:12:30.475Z,30.17
2022-11-29T02:15:08.147Z,29.13
2022-11-29T02:17:49.589Z,29.17
2022-11-29T02:20:53.890Z,28.73
2022-11-29T02:23:51.438Z,29.60
2022-11-29T02:26:36.812Z,28.83
2022-11-29T02:29:28.136Z,28.67
2022-11-29T02:32:18.954Z,30.75
2022-11-29T02:35:16.138Z,27.42
2022-11-29T02:37:57.636Z,28.42
2022-11-29T02:41:08.844Z,28.25
2022-11-29T02:43:53.952Z,28.13
2022-11-29T02:49:41.668Z,26.98
2022-11-29T02:52:17.142Z,27.05
2022-11-29T02:55:01.146Z,27.63
2022-11-29T02:57:40.125Z,28.02
2022-11-29T03:00:13.713Z,28.65
2022-11-29T03:02:52.486Z,30.02
2022-11-29T03:05:32.440Z,28.23
2022-11-29T03:08:24.354Z,28.23
2022-11-29T03:11:18.633Z,26.45
2022-11-29T03:13:55.805Z,27.88
2022-11-29T03:16:28.046Z,28.33
2022-11-29T03:19:05.605Z,27.45
2022-11-29T03:21:32.050Z,28.35
2022-11-29T03:24:04.865Z,26.70
2022-11-29T03:26:41.942Z,27.17
2022-11-29T03:29:27.464Z,25.73
2022-11-29T03:31:56.863Z,27.15
2022-11-29T03:34:45.088Z,27.77
2022-11-29T03:37:23.490Z,25.88
2022-11-29T03:40:05.007Z,27.13
2022-11-29T03:42:42.913Z,28.75
2022-11-29T03:45:32.752Z,27.20
2022-11-29T03:48:15.789Z,25.90
2022-11-29T03:50:53.948Z,27.83
2022-11-29T03:53:31.977Z,26.40
2022-11-29T03:56:05.036Z,26.35
2022-11-29T03:58:59.758Z,26.55
2022-11-29T04:01:47.824Z,28.42
2022-11-29T04:04:37.996Z,27.73
2022-11-29T04:07:19.642Z,27.38
2022-11-29T04:10:11.095Z,27.52
2022-11-29T04:12:43.393Z,27.50
2022-11-29T04:15:18.958Z,26.60
2022-11-29T04:17:57.588Z,28.27
2022-11-29T04:20:56.398Z,27.70
2022-11-29T04:23:44.522Z,28.45
2022-11-29T04:26:27.759Z,27.77
2022-11-29T04:29:11.811Z,27.63
2022-11-29T04:31:53.797Z,29.38
2022-11-29T04:35:03.581Z,28.25
2022-11-29T04:38:02.667Z,27.67
2022-11-29T04:40:55.951Z,27.77
2022-11-29T04:44:00.786Z,28.40
2022-11-29T04:46:54.273Z,28.05
2022-11-29T04:49:46.753Z,28.73
2022-11-29T04:52:32.185Z,27.83
2022-11-29T04:55:24.949Z,26.88
2022-11-29T04:58:12.766Z,28.60
2022-11-29T05:00:50.281Z,29.10
2022-11-29T05:03:26.270Z,28.33
2022-11-29T05:06:15.493Z,27.52
2022-11-29T05:09:23.440Z,27.08
2022-11-29T05:12:27.157Z,28.85
2022-11-29T05:15:09.589Z,28.35
2022-11-29T05:18:13.985Z,29.02
2022-11-29T05:20:46.276Z,27.73
2022-11-29T05:23:39.570Z,28.52
2022-11-29T05:26:29.185Z,27.45
2022-11-29T05:29:12.714Z,28.67
2022-11-29T05:32:09.761Z,26.70
2022-11-29T05:34:45.208Z,28.15
2022-11-29T05:37:31.000Z,29.30
2022-11-29T05:40:23.848Z,30.02
2022-11-29T05:42:50.262Z,28.52
2022-11-29T05:45:37.094Z,27.98
2022-11-29T05:48:22.299Z,29.60
2022-11-29T05:51:12.043Z,29.48
2022-11-29T05:53:48.133Z,28.52
2022-11-29T05:56:21.086Z,27.65
2022-11-29T05:59:09.395Z,27.23
2022-11-29T06:01:50.175Z,28.33
2022-11-29T06:04:33.354Z,27.02
2022-11-29T06:07:16.124Z,27.05
2022-11-29T06:10:04.313Z,27.65
2022-11-29T06:12:35.990Z,27.20
2022-11-29T06:15:59.548Z,27.23
2022-11-29T06:19:11.923Z,27.13
2022-11-29T06:21:50.405Z,27.08
2022-11-29T06:24:34.406Z,31.13
2022-11-29T06:27:09.809Z,27.85
2022-11-29T06:30:13.486Z,28.35
2022-11-29T06:33:03.144Z,28.17
2022-11-29T06:35:53.453Z,28.13
2022-11-29T06:38:27.297Z,28.20
2022-11-29T06:41:01.359Z,28.37
2022-11-29T06:46:22.247Z,28.90
2022-11-29T06:48:56.624Z,28.20
2022-11-29T06:51:53.800Z,28.63
2022-11-29T06:54:30.253Z,29.58
2022-11-29T06:57:19.610Z,29.73
2022-11-29T06:59:51.816Z,27.65
2022-11-29T07:02:32.470Z,27.60
2022-11-29T07:05:20.122Z,29.45
2022-11-29T07:07:48.449Z,27.90
2022-11-29T07:10:17.802Z,27.55
2022-11-29T07:12:49.180Z,26.92
2022-11-29T07:15:18.175Z,28.42
2022-11-29T07:17:47.381Z,29.92
2022-11-29T07:20:51.720Z,29.88
2022-11-29T07:23:35.853Z,28.88
2022-11-29T07:26:27.329Z,28.63
2022-11-29T07:29:35.377Z,29.27
2022-11-29T07:32:35.158Z,30.52
2022-11-29T07:35:09.005Z,29.70
2022-11-29T07:38:01.880Z,27.67
2022-11-29T07:40:56.320Z,28.55
2022-11-29T07:43:38.360Z,30.50
2022-11-29T07:46:04.934Z,30.25
2022-11-29T07:48:31.510Z,28.63
2022-11-29T07:50:58.049Z,29.92
2022-11-29T07:53:24.772Z,29.15
2022-11-29T07:55:51.568Z,32.55
2022-11-29T07:58:18.732Z,30.20
2022-11-29T08:00:45.760Z,30.83
2022-11-29T08:03:12.854Z,28.80
2022-11-29T08:05:40.240Z,31.70
2022-11-29T08:08:07.368Z,30.70
2022-11-29T08:10:35.553Z,28.35
2022-11-29T08:13:02.118Z,28.80
2022-11-29T08:15:28.752Z,28.13
2022-11-29T08:17:55.250Z,29.52
2022-11-29T08:20:21.820Z,30.38
2022-11-29T08:22:58.651Z,30.10
2022-11-29T08:25:27.194Z,30.15
2022-11-29T08:27:54.745Z,29.73
2022-11-29T08:30:22.454Z,30.67
2022-11-29T08:32:51.765Z,28.98
2022-11-29T08:35:20.592Z,29.00
2022-11-29T08:37:47.193Z,30.75
2022-11-29T08:40:14.289Z,29.25
2022-11-29T08:42:40.814Z,27.88
2022-11-29T08:45:07.982Z,28.67
2022-11-29T08:47:37.179Z,29.40
2022-11-29T08:50:14.614Z,30.20
2022-11-29T08:53:05.167Z,29.13
2022-11-29T08:55:34.750Z,29.50
2022-11-29T08:58:04.838Z,30.27
2022-11-29T09:00:32.517Z,31.27
2022-11-29T09:03:19.113Z,30.52
2022-11-29T09:05:45.830Z,30.77
2022-11-29T09:08:12.390Z,31.30
2022-11-29T09:10:40.516Z,31.38
2022-11-29T09:13:08.561Z,29.27
2022-11-29T09:15:37.037Z,29.73
2022-11-29T09:18:05.423Z,30.48
2022-11-29T09:20:33.157Z,30.10
2022-11-29T09:23:00.849Z,29.83
2022-11-29T09:25:27.972Z,31.00
2022-11-29T09:27:57.308Z,30.92
2022-11-29T09:30:24.056Z,31.45
2022-11-29T09:32:50.687Z,31.83
2022-11-29T09:35:17.541Z,31.20
2022-11-29T09:37:44.135Z,32.08
2022-11-29T09:40:25.477Z,32.53
2022-11-29T09:43:09.045Z,30.88
2022-11-29T09:45:42.741Z,29.98
2022-11-29T09:48:31.033Z,31.67
2022-11-29T09:51:27.440Z,32.35
2022-11-29T09:54:32.686Z,29.52
2022-11-29T09:56:59.625Z,30.65
2022-11-29T09:59:35.929Z,29.58
2022-11-29T10:02:32.760Z,31.60
2022-11-29T10:05:09.033Z,30.10
2022-11-29T10:07:43.536Z,29.75
2022-11-29T10:10:15.998Z,27.48
2022-11-29T10:12:54.557Z,30.40
2022-11-29T10:15:28.037Z,31.52
2022-11-29T10:18:16.535Z,29.83
2022-11-29T10:20:49.161Z,31.42
2022-11-29T10:23:46.450Z,32.80
2022-11-29T10:26:13.677Z,34.58
2022-11-29T10:28:44.973Z,31.58
2022-11-29T10:31:27.943Z,31.73
2022-11-29T10:33:56.101Z,30.30
2022-11-29T10:36:36.538Z,28.92
2022-11-29T10:39:14.404Z,31.77
2022-11-29T10:41:41.373Z,33.05
2022-11-29T10:44:13.493Z,34.28
2022-11-29T10:46:40.339Z,33.90
2022-11-29T10:49:13.509Z,32.47
2022-11-29T10:51:40.403Z,31.63
2022-11-29T10:54:31.279Z,29.23
2022-11-29T10:57:00.353Z,30.73
2022-11-29T10:59:29.629Z,32.30
2022-11-29T11:01:57.557Z,30.13
2022-11-29T11:04:42.884Z,32.97
2022-11-29T11:07:23.965Z,33.22
2022-11-29T11:09:53.708Z,33.30
2022-11-29T11:12:24.052Z,32.88
2022-11-29T11:14:51.553Z,32.67
2022-11-29T11:17:22.742Z,33.88
2022-11-29T11:19:55.427Z,32.88
2022-11-29T11:22:24.422Z,33.50
2022-11-29T11:25:03.685Z,32.70
2022-11-29T11:27:37.196Z,34.10
2022-11-29T11:30:06.634Z,33.28
2022-11-29T11:32:33.404Z,32.33
2022-11-29T11:35:01.860Z,32.78
2022-11-29T11:37:33.319Z,31.52
2022-11-29T11:40:19.306Z,33.38
2022-11-29T11:42:46.474Z,35.60
2022-11-29T11:45:12.936Z,32.83
2022-11-29T11:47:44.960Z,33.60
2022-11-29T11:50:16.684Z,36.15
2022-11-29T11:52:52.361Z,37.38
2022-11-29T11:55:21.880Z,38.88
2022-11-29T11:57:57.591Z,37.88
2022-11-29T12:01:03.911Z,42.35
2022-11-29T12:03:45.803Z,39.30
2022-11-29T12:06:33.997Z,42.80
2022-11-29T12:09:16.433Z,42.30
2022-11-29T12:12:06.904Z,45.15
2022-11-29T12:14:50.212Z,49.78
2022-11-29T12:17:27.635Z,50.65
2022-11-29T12:20:10.024Z,49.42
2022-11-29T12:22:48.560Z,50.30
2022-11-29T12:25:21.179Z,54.10
2022-11-29T12:27:50.254Z,54.28
2022-11-29T12:30:18.404Z,49.40
2022-11-29T12:33:06.323Z,51.78
2022-11-29T12:35:41.897Z,54.75
2022-11-29T12:38:14.415Z,55.00
2022-11-29T12:40:53.010Z,54.70
2022-11-29T12:43:25.318Z,53.40
2022-11-29T12:46:24.537Z,53.25
2022-11-29T12:49:15.733Z,54.15
2022-11-29T12:51:51.443Z,54.30
2022-11-29T12:54:44.659Z,54.13
2022-11-29T12:57:25.238Z,53.75
2022-11-29T13:00:15.394Z,53.90
2022-11-29T13:02:58.762Z,52.28
2022-11-29T13:05:41.453Z,53.65
2022-11-29T13:08:23.080Z,54.10
2022-11-29T13:11:12.083Z,55.33
2022-11-29T13:13:43.388Z,53.47
2022-11-29T13:19:47.257Z,54.17
2022-11-29T13:22:41.759Z,54.10
2022-11-29T13:25:26.936Z,53.93
2022-11-29T13:28:05.244Z,55.00
2022-11-29T13:30:34.342Z,55.25
2022-11-29T13:33:16.108Z,54.50
2022-11-29T13:35:53.283Z,55.25
2022-11-29T13:38:28.869Z,53.05
2022-11-29T13:41:32.245Z,54.10
2022-11-29T13:44:15.881Z,53.65
2022-11-29T13:47:08.925Z,54.60
2022-11-29T13:50:01.979Z,52.00
2022-11-29T13:52:48.385Z,52.80
2022-11-29T13:55:28.744Z,54.80
2022-11-29T13:58:30.581Z,53.88
2022-11-29T14:01:06.093Z,56.28
2022-11-29T14:03:36.301Z,55.00
2022-11-29T14:06:03.223Z,55.80
2022-11-29T14:09:16.712Z,54.25
2022-11-29T14:11:28.836Z,54.65
2022-11-29T14:14:08.998Z,54.38
2022-11-29T14:16:47.765Z,54.05
2022-11-29T14:19:33.771Z,52.85
2022-11-29T14:22:06.485Z,53.08
2022-11-29T14:24:33.453Z,53.90
2022-11-29T14:27:20.131Z,54.45
2022-11-29T14:29:50.016Z,53.25
2022-11-29T14:32:32.598Z,54.03
2022-11-29T14:35:11.292Z,55.45
2022-11-29T14:38:02.316Z,54.33
2022-11-29T14:40:56.330Z,54.25
2022-11-29T14:43:34.446Z,54.50
2022-11-29T14:46:09.967Z,53.33
2022-11-29T14:48:37.324Z,52.65
2022-11-29T14:51:13.433Z,52.72
2022-11-29T14:53:41.897Z,52.60
2022-11-29T14:56:39.058Z,52.33
2022-11-29T14:59:44.961Z,52.38
2022-11-29T15:02:25.872Z,52.22
2022-11-29T15:04:56.469Z,51.70
2022-11-29T15:07:31.927Z,52.10
2022-11-29T15:10:03.295Z,49.83
2022-11-29T15:12:37.981Z,49.50
2022-11-29T15:17:55.662Z,48.47
2022-11-29T15:20:32.004Z,48.72
2022-11-29T15:23:01.729Z,48.90
2022-11-29T15:25:31.846Z,48.13
2022-11-29T15:28:03.654Z,48.92
2022-11-29T15:30:39.153Z,49.95
2022-11-29T15:33:08.778Z,49.45
2022-11-29T15:35:36.590Z,48.75
2022-11-29T15:38:03.857Z,49.08
2022-11-29T15:40:35.277Z,48.10
2022-11-29T15:43:22.539Z,51.75
2022-11-29T15:45:51.830Z,50.50
2022-11-29T15:48:23.022Z,48.72
2022-11-29T15:51:01.809Z,47.28
2022-11-29T15:53:47.156Z,46.60
2022-11-29T15:56:20.014Z,51.15
2022-11-29T15:58:47.852Z,47.92
2022-11-29T16:01:20.745Z,45.78
2022-11-29T16:03:51.188Z,48.15
2022-11-29T16:06:40.677Z,46.70
2022-11-29T16:09:12.633Z,45.08
2022-11-29T16:11:39.806Z,44.50
2022-11-29T16:14:18.135Z,47.58
2022-11-29T16:16:47.331Z,45.00
2022-11-29T16:19:26.114Z,47.38
2022-11-29T16:22:10.910Z,45.78
2022-11-29T16:24:39.775Z,48.42
2022-11-29T16:27:08.072Z,45.08
2022-11-29T16:29:45.271Z,46.03
2022-11-29T16:32:37.869Z,46.92
2022-11-29T16:35:13.132Z,45.03
2022-11-29T16:37:42.803Z,44.22
2022-11-29T16:40:35.422Z,46.20
2022-11-29T16:43:04.885Z,46.50
2022-11-29T16:45:37.258Z,44.10
2022-11-29T16:48:24.586Z,45.85
2022-11-29T16:51:12.050Z,44.10
2022-11-29T16:53:43.207Z,43.63
2022-11-29T16:56:14.994Z,43.80
2022-11-29T16:59:20.542Z,43.33
2022-11-29T17:01:32.552Z,44.78
2022-11-29T17:04:00.467Z,44.53
2022-11-29T17:06:29.527Z,45.00
2022-11-29T17:08:58.174Z,43.97
2022-11-29T17:11:27.029Z,44.17
2022-11-29T17:13:53.842Z,43.55
2022-11-29T17:16:22.992Z,43.55
2022-11-29T17:18:50.168Z,43.15
2022-11-29T17:21:21.786Z,42.55
2022-11-29T17:23:48.882Z,43.20
2022-11-29T17:26:16.499Z,42.78
2022-11-29T17:28:44.822Z,43.35
2022-11-29T17:31:13.674Z,42.50
2022-11-29T17:33:40.341Z,40.88
2022-11-29T17:36:08.511Z,44.17
2022-11-29T17:38:35.365Z,40.70
2022-11-29T17:41:09.768Z,42.88
2022-11-29T17:43:36.901Z,41.95
2022-11-29T17:46:08.024Z,42.50
2022-11-29T17:48:34.795Z,40.63
2022-11-29T17:51:02.105Z,41.70
2022-11-29T17:53:28.688Z,40.25
2022-11-29T17:55:55.165Z,37.90
2022-11-29T17:58:21.668Z,38.33
2022-11-29T18:00:48.202Z,38.60
2022-11-29T18:03:14.726Z,41.80
2022-11-29T18:05:41.191Z,40.80
2022-11-29T18:08:07.737Z,41.22
2022-11-29T18:10:35.865Z,40.60
2022-11-29T18:13:02.418Z,37.67
2022-11-29T18:15:28.937Z,39.28
2022-11-29T18:17:55.508Z,39.63
2022-11-29T18:20:22.046Z,39.30
2022-11-29T18:22:48.586Z,38.13
2022-11-29T18:25:37.441Z,41.03
2022-11-29T18:28:02.313Z,38.58
2022-11-29T18:30:28.847Z,38.38
2022-11-29T18:32:56.889Z,40.03
2022-11-29T18:35:23.408Z,41.13
2022-11-29T18:38:14.189Z,41.00
2022-11-29T18:40:45.479Z,40.85
2022-11-29T18:43:15.313Z,40.90
2022-11-29T18:45:41.843Z,39.05
2022-11-29T18:48:08.460Z,39.40
2022-11-29T18:50:34.920Z,40.97
2022-11-29T18:53:01.517Z,40.00
2022-11-29T18:55:28.151Z,39.03
2022-11-29T18:57:55.060Z,40.78
2022-11-29T19:00:21.789Z,37.58
2022-11-29T19:02:48.389Z,40.15
2022-11-29T19:05:15.025Z,43.28
2022-11-29T19:07:41.659Z,40.40
2022-11-29T19:10:08.593Z,36.70
2022-11-29T19:12:35.190Z,39.75
2022-11-29T19:15:01.921Z,39.67
2022-11-29T19:17:29.529Z,37.47
2022-11-29T19:19:56.083Z,38.30
2022-11-29T19:22:22.594Z,38.15
2022-11-29T19:24:49.165Z,38.35
2022-11-29T19:27:16.424Z,39.90
2022-11-29T19:29:43.029Z,40.05
2022-11-29T19:32:09.605Z,37.28
2022-11-29T19:34:36.098Z,38.40
2022-11-29T19:37:02.582Z,36.85
2022-11-29T19:39:29.342Z,38.15
2022-11-29T19:41:56.055Z,37.30
2022-11-29T19:44:27.944Z,39.70
2022-11-29T19:46:56.443Z,39.63
2022-11-29T19:49:22.952Z,36.45
2022-11-29T19:51:49.452Z,40.00
2022-11-29T19:54:16.017Z,37.63
2022-11-29T19:56:42.558Z,37.95
2022-11-29T19:59:09.265Z,40.35
2022-11-29T20:01:43.828Z,38.78
2022-11-29T20:06:38.109Z,39.00
2022-11-29T20:09:05.101Z,39.10
2022-11-29T20:11:31.629Z,38.47
2022-11-29T20:14:00.705Z,38.40
2022-11-29T20:16:29.294Z,38.30
2022-11-29T20:18:56.916Z,37.22
2022-11-29T20:21:29.933Z,36.35
2022-11-29T20:23:58.554Z,35.80
2022-11-29T20:26:26.466Z,36.75
2022-11-29T20:28:53.067Z,37.35
2022-11-29T20:31:22.774Z,37.55
2022-11-29T20:33:51.431Z,39.28
2022-11-29T20:36:46.570Z,37.72
2022-11-29T20:39:40.203Z,36.20
2022-11-29T20:42:09.377Z,37.22
2022-11-29T20:44:45.818Z,36.65
2022-11-29T20:47:22.985Z,37.22
2022-11-29T20:49:50.228Z,37.20
2022-11-29T20:52:52.074Z,35.85
2022-11-29T20:55:18.929Z,35.30
2022-11-29T20:57:45.510Z,36.38
2022-11-29T21:00:12.845Z,36.03
2022-11-29T21:02:39.628Z,34.22
2022-11-29T21:05:06.802Z,32.80
2022-11-29T21:07:33.613Z,30.73
2022-11-29T21:10:01.537Z,31.13
2022-11-29T21:12:30.024Z,31.75
2022-11-29T21:14:57.380Z,33.65
2022-11-29T21:17:28.810Z,33.78
2022-11-29T21:20:00.134Z,33.42
2022-11-29T21:22:38.264Z,33.40
2022-11-29T21:25:16.216Z,34.03
2022-11-29T21:27:42.943Z,33.58
2022-11-29T21:30:17.983Z,33.90
2022-11-29T21:32:50.890Z,33.97
2022-11-29T21:35:17.759Z,33.10
2022-11-29T21:37:45.300Z,33.05
2022-11-29T21:40:13.269Z,33.55
2022-11-29T21:42:39.878Z,34.10
2022-11-29T21:45:11.766Z,33.92
2022-11-29T21:47:41.612Z,31.48
2022-11-29T21:50:08.877Z,33.15
2022-11-29T21:52:35.470Z,35.78
2022-11-29T21:55:02.275Z,33.50
2022-11-29T21:57:28.774Z,36.25
2022-11-29T21:59:55.326Z,34.03
2022-11-29T22:02:22.084Z,34.08
2022-11-29T22:04:49.059Z,34.90
2022-11-29T22:07:15.771Z,33.80
2022-11-29T22:09:42.358Z,35.63
2022-11-29T22:12:31.866Z,35.13
2022-11-29T22:14:55.412Z,34.20
2022-11-29T22:17:21.956Z,35.60
2022-11-29T22:19:48.439Z,35.42
2022-11-29T22:22:14.966Z,34.55
2022-11-29T22:24:41.517Z,36.83
2022-11-29T22:27:08.014Z,36.40
2022-11-29T22:29:34.555Z,39.17
2022-11-29T22:32:02.264Z,38.40
2022-11-29T22:34:28.812Z,38.03
2022-11-29T22:36:55.940Z,39.30
2022-11-29T22:39:22.930Z,36.50
2022-11-29T22:41:54.186Z,39.00
2022-11-29T22:44:21.940Z,38.75
2022-11-29T22:46:48.775Z,38.05
2022-11-29T22:49:15.360Z,41.15
2022-11-29T22:51:41.956Z,39.38
2022-11-29T22:54:11.359Z,38.08
2022-11-29T22:56:40.101Z,39.45
2022-11-29T22:59:06.832Z,41.88
2022-11-29T23:01:36.038Z,40.78
2022-11-29T23:04:06.065Z,41.58
2022-11-29T23:06:38.667Z,40.22
2022-11-29T23:09:12.097Z,40.80
2022-11-29T23:11:39.057Z,39.10
2022-11-29T23:14:05.572Z,42.95
2022-11-29T23:16:32.890Z,39.83
2022-11-29T23:19:00.219Z,39.80
2022-11-29T23:21:34.159Z,42.58
2022-11-29T23:24:01.553Z,43.47
2022-11-29T23:26:33.920Z,43.95
2022-11-29T23:29:00.439Z,44.33
2022-11-29T23:31:27.122Z,42.80
2022-11-29T23:33:53.901Z,42.25
2022-11-29T23:36:20.545Z,42.60
2022-11-29T23:38:47.870Z,44.83
2022-11-29T23:41:14.858Z,42.63
2022-11-29T23:43:41.869Z,45.42
2022-11-29T23:46:12.267Z,43.13
2022-11-29T23:48:38.961Z,43.80
2022-11-29T23:51:05.840Z,45.35
2022-11-29T23:53:32.546Z,45.28
2022-11-29T23:56:01.263Z,43.78
2022-11-29T23:58:29.621Z,46.03
